createdAt,value
2019-03-19T00:03:24.825Z,99.90
2019-03-19T00:08:29.446Z,99.90
2019-03-19T00:18:38.225Z,99.90
2019-03-19T00:23:42.699Z,99.90
2019-03-19T00:28:47.882Z,99.90
2019-03-19T00:33:53.548Z,99.90
2019-03-19T00:38:59.333Z,99.90
2019-03-19T00:44:04.012Z,99.90
2019-03-19T00:54:12.727Z,99.90
2019-03-19T00:59:17.386Z,99.90
2019-03-19T01:04:26.422Z,99.90
2019-03-19T01:09:30.977Z,99.90
2019-03-19T01:14:35.796Z,99.90
2019-03-19T01:19:40.456Z,99.90
2019-03-19T01:39:59.617Z,99.90
2019-03-19T01:45:06.693Z,99.90
2019-03-19T01:50:11.581Z,99.90
2019-03-19T01:55:16.290Z,99.90
2019-03-19T02:00:25.385Z,99.90
2019-03-19T02:20:44.421Z,99.90
2019-03-19T02:25:49.095Z,99.90
2019-03-19T02:30:53.637Z,99.90
2019-03-19T02:35:58.494Z,99.90
2019-03-19T02:46:07.570Z,99.90
2019-03-19T02:51:12.206Z,99.90
2019-03-19T02:56:31.884Z,99.90
2019-03-19T03:01:24.601Z,99.90
2019-03-19T03:06:29.136Z,99.90
2019-03-19T03:11:33.791Z,99.90
2019-03-19T03:16:38.444Z,99.90
2019-03-19T03:21:43.792Z,99.90
2019-03-19T03:26:48.960Z,99.90
2019-03-19T03:31:53.687Z,99.90
2019-03-19T03:36:58.242Z,99.90
2019-03-19T03:42:03.858Z,99.90
2019-03-19T03:47:08.447Z,99.90
2019-03-19T03:57:17.687Z,99.90
2019-03-19T04:02:22.293Z,99.90
2019-03-19T04:12:32.977Z,99.90
2019-03-19T04:17:37.758Z,99.90
2019-03-19T04:22:43.275Z,99.90
2019-03-19T04:27:47.864Z,99.90
2019-03-19T04:32:52.839Z,99.90
2019-03-19T04:37:57.498Z,99.90
2019-03-19T04:43:03.778Z,99.90
2019-03-19T04:48:08.439Z,99.90
2019-03-19T04:53:13.418Z,99.90
2019-03-19T04:58:18.343Z,99.90
2019-03-19T05:03:23.090Z,99.90
2019-03-19T05:08:27.705Z,99.90
2019-03-19T05:13:32.252Z,99.90
2019-03-19T05:18:36.849Z,99.90
2019-03-19T05:23:41.770Z,99.90
2019-03-19T05:43:58.586Z,99.90
2019-03-19T05:49:05.484Z,99.90
2019-03-19T06:14:26.994Z,99.90
2019-03-19T06:19:31.540Z,99.90
2019-03-19T06:24:36.481Z,99.90
2019-03-19T06:29:41.038Z,99.90
2019-03-19T06:34:45.752Z,99.90
2019-03-19T06:39:50.847Z,99.90
2019-03-19T06:50:02.513Z,99.90
2019-03-19T06:55:08.727Z,99.90
2019-03-19T07:00:15.875Z,99.90
2019-03-19T07:05:21.696Z,99.90
2019-03-19T07:10:26.447Z,99.90
2019-03-19T07:15:31.438Z,99.90
2019-03-19T07:20:36.047Z,99.90
2019-03-19T07:25:40.657Z,99.90
2019-03-19T07:30:45.827Z,99.90
2019-03-19T07:35:50.966Z,99.90
2019-03-19T07:40:55.503Z,99.90
2019-03-19T07:46:00.338Z,99.90
2019-03-19T07:51:05.341Z,99.90
2019-03-19T07:56:09.892Z,99.90
2019-03-19T08:01:14.688Z,99.90
2019-03-19T08:06:20.779Z,99.90
2019-03-19T08:11:25.283Z,99.90
2019-03-19T08:16:29.981Z,99.90
2019-03-19T08:21:34.438Z,99.90
2019-03-19T08:26:39.102Z,99.90
2019-03-19T08:31:43.624Z,99.90
2019-03-19T08:36:48.258Z,99.90
2019-03-19T08:41:52.745Z,99.90
2019-03-19T08:46:57.399Z,99.90
2019-03-19T08:52:02.122Z,99.90
2019-03-19T08:57:06.318Z,99.90
2019-03-19T09:02:10.882Z,99.90
2019-03-19T09:07:15.561Z,99.90
2019-03-19T09:12:20.150Z,99.90
2019-03-19T09:17:24.749Z,99.90
2019-03-19T09:22:29.946Z,99.90
2019-03-19T09:27:34.652Z,99.90
2019-03-19T09:32:39.174Z,99.90
2019-03-19T09:37:46.383Z,99.90
2019-03-19T09:42:50.106Z,99.90
2019-03-19T09:47:54.706Z,99.90
2019-03-19T09:52:59.359Z,99.90
2019-03-19T09:58:04.018Z,99.90
2019-03-19T10:03:08.783Z,99.90
2019-03-19T10:08:13.463Z,99.90
2019-03-19T10:13:18.857Z,99.90
2019-03-19T10:18:23.730Z,99.90
2019-03-19T10:23:28.409Z,99.90
2019-03-19T10:28:33.239Z,99.90
2019-03-19T10:33:37.890Z,99.90
2019-03-19T10:38:42.581Z,99.90
2019-03-19T10:43:47.454Z,99.90
2019-03-19T10:48:52.166Z,99.90
2019-03-19T10:53:57.282Z,94.60
2019-03-19T10:59:02.020Z,96.10
2019-03-19T11:04:06.744Z,99.90
2019-03-19T11:09:11.665Z,97.20
2019-03-19T11:14:16.318Z,96.30
2019-03-19T11:19:20.880Z,98.50
2019-03-19T11:24:25.547Z,99.90
2019-03-19T11:29:30.271Z,92.30
2019-03-19T11:34:34.988Z,93.30
2019-03-19T11:39:40.743Z,93.80
2019-03-19T11:44:45.803Z,97.70
2019-03-19T11:49:50.523Z,99.90
2019-03-19T11:54:55.171Z,93.50
2019-03-19T12:00:10.428Z,97.90
2019-03-19T12:05:06.759Z,96.70
2019-03-19T12:10:11.633Z,95.70
2019-03-19T12:15:19.471Z,94.10
2019-03-19T12:20:24.234Z,93.90
2019-03-19T12:25:31.227Z,91.60
2019-03-19T12:30:35.755Z,87.70
2019-03-19T12:35:40.635Z,88.20
2019-03-19T12:40:45.644Z,90.50
2019-03-19T12:45:50.768Z,90.50
2019-03-19T12:50:55.490Z,87.10
2019-03-19T12:56:00.584Z,82.30
2019-03-19T13:01:05.601Z,87.20
2019-03-19T13:06:10.448Z,82.00
2019-03-19T13:11:15.184Z,74.10
2019-03-19T13:16:19.901Z,80.10
2019-03-19T13:21:24.608Z,82.50
2019-03-19T13:26:29.186Z,91.30
2019-03-19T13:31:34.087Z,90.30
2019-03-19T13:36:38.698Z,88.60
2019-03-19T13:41:43.371Z,87.10
2019-03-19T13:46:48.568Z,93.00
2019-03-19T13:51:56.859Z,95.10
2019-03-19T13:57:01.791Z,96.90
2019-03-19T14:02:12.625Z,98.90
2019-03-19T14:07:18.173Z,99.90
2019-03-19T14:12:23.799Z,99.90
2019-03-19T14:17:32.753Z,99.90
2019-03-19T14:22:38.178Z,99.90
2019-03-19T14:27:43.253Z,99.90
2019-03-19T14:32:50.237Z,97.20
2019-03-19T14:37:57.912Z,99.90
2019-03-19T14:43:05.834Z,99.90
2019-03-19T14:48:11.049Z,99.90
2019-03-19T14:53:16.335Z,99.90
2019-03-19T14:58:21.190Z,95.30
2019-03-19T15:03:28.167Z,97.00
2019-03-19T15:08:34.808Z,97.10
2019-03-19T15:13:45.043Z,99.90
2019-03-19T15:18:49.913Z,99.90
2019-03-19T15:23:57.959Z,99.90
2019-03-19T15:29:05.200Z,99.90
2019-03-19T15:34:13.233Z,99.90
2019-03-19T15:39:18.425Z,99.90
2019-03-19T15:44:26.738Z,99.90
2019-03-19T15:49:38.126Z,99.90
2019-03-19T15:54:38.995Z,99.90
2019-03-19T15:59:44.914Z,99.90
2019-03-19T16:04:50.480Z,99.90
2019-03-19T16:09:55.349Z,99.90
2019-03-19T16:15:00.398Z,99.90
2019-03-19T16:20:06.811Z,99.90
2019-03-19T16:25:12.421Z,99.90
2019-03-19T16:30:17.105Z,99.90
2019-03-19T16:35:21.852Z,99.90
2019-03-19T16:40:26.520Z,99.90
2019-03-19T16:45:31.167Z,99.90
2019-03-19T16:50:35.915Z,99.90
2019-03-19T16:55:40.707Z,99.90
2019-03-19T17:05:49.948Z,99.90
2019-03-19T17:10:54.514Z,99.90
2019-03-19T17:15:59.214Z,99.90
2019-03-19T17:21:03.855Z,99.90
2019-03-19T17:26:08.874Z,99.90
2019-03-19T17:31:13.562Z,99.90
2019-03-19T17:36:18.105Z,99.90
2019-03-19T17:41:23.131Z,99.90
2019-03-19T17:46:27.821Z,99.90
2019-03-19T17:51:32.534Z,99.90
2019-03-19T17:56:39.270Z,99.90
2019-03-19T18:01:44.773Z,99.90
2019-03-19T18:06:49.636Z,99.90
2019-03-19T18:11:54.528Z,99.90
2019-03-19T18:17:00.282Z,99.90
2019-03-19T18:22:05.296Z,99.90
2019-03-19T18:27:11.067Z,99.90
2019-03-19T18:32:15.814Z,99.90
2019-03-19T18:37:20.276Z,99.90
2019-03-19T18:42:24.977Z,99.90
2019-03-19T18:47:29.864Z,99.90
2019-03-19T18:52:34.651Z,99.90
2019-03-19T18:57:41.593Z,99.90
2019-03-19T19:02:50.003Z,99.90
2019-03-19T19:07:52.663Z,99.90
2019-03-19T19:12:57.646Z,99.90
2019-03-19T19:18:02.539Z,99.90
2019-03-19T19:23:07.486Z,99.90
2019-03-19T19:28:12.319Z,99.90
2019-03-19T19:33:17.051Z,99.90
2019-03-19T19:38:21.996Z,99.90
2019-03-19T19:43:27.227Z,99.90
2019-03-19T19:48:32.189Z,99.90
2019-03-19T19:53:36.995Z,99.90
2019-03-19T19:58:43.898Z,99.90
2019-03-19T20:03:49.888Z,99.90
2019-03-19T20:08:55.992Z,99.90
2019-03-19T20:14:04.035Z,99.90
2019-03-19T20:19:08.884Z,99.90
2019-03-19T20:24:13.578Z,99.90
2019-03-19T20:29:19.516Z,99.90
2019-03-19T20:34:24.249Z,99.90
2019-03-19T20:39:29.231Z,99.90
2019-03-19T20:44:34.204Z,99.90
2019-03-19T20:49:47.149Z,99.90
2019-03-19T20:55:07.579Z,99.90
2019-03-19T21:00:25.490Z,99.90
2019-03-19T21:05:40.599Z,99.90
2019-03-19T21:10:58.306Z,99.90
2019-03-19T21:16:30.608Z,99.90
2019-03-19T21:22:00.805Z,99.90
2019-03-19T21:27:21.688Z,99.90
2019-03-19T21:32:29.039Z,99.90
2019-03-19T21:37:34.799Z,99.90
2019-03-19T21:42:39.810Z,99.90
2019-03-19T21:47:48.021Z,99.90
2019-03-19T22:08:11.644Z,99.90
2019-03-19T22:18:22.442Z,99.90
2019-03-19T22:23:27.156Z,99.90
2019-03-19T22:28:32.685Z,99.90
2019-03-19T22:33:37.367Z,99.90
2019-03-19T22:38:43.013Z,99.90
2019-03-19T22:43:47.863Z,99.90
2019-03-19T22:48:52.775Z,99.90
2019-03-19T22:53:57.591Z,99.90
2019-03-19T22:59:02.332Z,99.90
2019-03-19T23:04:06.995Z,99.90
2019-03-19T23:09:12.670Z,99.90
2019-03-19T23:14:18.283Z,99.90
2019-03-19T23:19:23.230Z,99.90
2019-03-19T23:24:28.067Z,99.90
2019-03-19T23:29:32.963Z,99.90
2019-03-19T23:34:38.659Z,99.90
2019-03-19T23:39:43.723Z,99.90
2019-03-19T23:44:48.309Z,99.90
2019-03-19T23:49:53.261Z,99.90
2019-03-19T23:54:57.890Z,99.90
